Time;durP1;ratioP1;P1;durP2;ratioP2;P2;SDS_P1;SDS_P2;PMS_P1;PMS_P2;Temp;Humidity;BMP_temperature;BMP_pressure;BME280_temperature;BME280_humidity;BME280_pressure;Samples;Min_cycle;Max_cycle;Signal;HPM_P1;HPM_P2
2022/01/29 00:01:27;;;;;;;;;;;6.50;1.00;;;;;;5033934;28;20128;-81
2022/01/29 00:03:53;;;;;;;;;;;6.60;1.00;;;;;;5020875;28;19920;-80
2022/01/29 00:06:18;;;;;;;;;;;6.60;1.00;;;;;;5028942;28;19921;-81
2022/01/29 00:08:44;;;;;;;;;;;6.60;1.00;;;;;;5032145;28;19917;-81
2022/01/29 00:11:13;;;;;;;;;;;6.60;1.00;;;;;;5016442;28;19921;-80
2022/01/29 00:13:38;;;;;;;;;;;6.60;1.00;;;;;;5016384;28;19955;-81
2022/01/29 00:16:04;;;;;;;;;;;6.60;1.00;;;;;;5021414;28;19913;-81
2022/01/29 00:18:30;;;;;;;;;;;6.60;1.00;;;;;;5017176;28;19918;-81
2022/01/29 00:20:55;;;;;;;;;;;6.60;1.00;;;;;;5012848;28;19985;-81
2022/01/29 00:23:20;;;;;;;;;;;6.60;1.00;;;;;;5015878;28;19995;-81
2022/01/29 00:25:46;;;;;;;;;;;6.60;1.00;;;;;;5027530;28;19917;-81
2022/01/29 00:28:13;;;;;;;;;;;6.60;1.00;;;;;;5016743;28;19913;-81
2022/01/29 00:30:42;;;;;;;;;;;6.60;1.00;;;;;;5012707;28;20297;-81
2022/01/29 00:33:11;;;;;;;;;;;6.60;99.90;;;;;;5024852;28;19968;-81
2022/01/29 00:35:37;;;;;;;;;;;6.60;99.90;;;;;;5017091;28;19981;-81
2022/01/29 00:38:04;;;;;;;;;;;6.60;99.90;;;;;;5014253;28;19979;-81
2022/01/29 00:40:31;;;;;;;;;;;6.60;99.90;;;;;;5010098;28;19913;-80
2022/01/29 00:42:56;;;;;;;;;;;6.60;99.90;;;;;;5014931;28;19914;-81
2022/01/29 00:45:22;;;;;;;;;;;6.70;99.90;;;;;;5007836;28;20070;-81
2022/01/29 00:47:47;;;;;;;;;;;6.70;99.90;;;;;;5017459;28;19921;-80
2022/01/29 00:50:13;;;;;;;;;;;6.70;99.90;;;;;;5017148;28;19967;-81
2022/01/29 00:52:38;;;;;;;;;;;6.70;99.90;;;;;;5016693;28;19913;-81
2022/01/29 00:55:05;;;;;;;;;;;6.70;99.90;;;;;;5016549;28;19917;-81
2022/01/29 00:57:32;;;;;;;;;;;6.70;99.90;;;;;;5008718;28;20430;-81
2022/01/29 00:59:58;;;;;;;;;;;6.70;99.90;;;;;;5016423;28;19928;-80
2022/01/29 01:02:23;;;;;;;;;;;6.70;99.90;;;;;;5031944;28;19972;-81
2022/01/29 01:04:49;;;;;;;;;;;6.70;99.90;;;;;;5015464;28;20326;-81
2022/01/29 01:07:14;;;;;;;;;;;6.70;99.90;;;;;;5016673;28;19917;-82
2022/01/29 01:09:40;;;;;;;;;;;6.70;99.90;;;;;;5017964;28;19925;-81
2022/01/29 01:12:06;;;;;;;;;;;6.70;68.70;;;;;;5031001;28;19913;-81
2022/01/29 01:14:31;;;;;;;;;;;6.70;1.00;;;;;;5030182;28;19920;-83
2022/01/29 01:16:57;;;;;;;;;;;6.70;1.00;;;;;;5011914;28;20012;-80
2022/01/29 01:19:26;;;;;;;;;;;6.70;1.00;;;;;;5024912;28;19914;-81
2022/01/29 01:21:53;;;;;;;;;;;6.80;1.00;;;;;;5004323;28;19940;-81
2022/01/29 01:24:18;;;;;;;;;;;6.80;1.00;;;;;;5008047;28;19913;-81
2022/01/29 01:26:44;;;;;;;;;;;6.80;1.00;;;;;;5025943;28;19976;-80
2022/01/29 01:29:10;;;;;;;;;;;6.80;1.00;;;;;;5007631;28;19979;-81
2022/01/29 01:31:35;;;;;;;;;;;6.80;1.00;;;;;;5016322;28;19917;-81
2022/01/29 01:34:03;;;;;;;;;;;6.80;1.00;;;;;;5004032;28;19921;-80
2022/01/29 01:36:29;;;;;;;;;;;6.80;1.00;;;;;;5014147;28;20341;-81
2022/01/29 01:39:02;;;;;;;;;;;6.80;1.00;;;;;;5016281;28;19921;-81
2022/01/29 01:41:29;;;;;;;;;;;6.80;1.00;;;;;;5019449;28;19946;-81
2022/01/29 01:44:01;;;;;;;;;;;6.80;1.00;;;;;;5015482;28;19918;-81
2022/01/29 01:46:28;;;;;;;;;;;6.80;1.00;;;;;;5012222;28;19941;-81
2022/01/29 01:48:54;;;;;;;;;;;6.80;1.00;;;;;;5015959;28;19992;-81
2022/01/29 01:51:19;;;;;;;;;;;6.80;1.00;;;;;;5033682;28;20397;-82
2022/01/29 01:53:45;;;;;;;;;;;6.80;1.00;;;;;;5019060;28;19926;-81
2022/01/29 01:56:10;;;;;;;;;;;6.80;1.00;;;;;;5020064;28;19934;-80
2022/01/29 01:58:36;;;;;;;;;;;6.90;1.00;;;;;;5019197;28;19921;-81
2022/01/29 02:01:02;;;;;;;;;;;6.90;1.00;;;;;;5035210;28;19909;-81
2022/01/29 02:03:27;;;;;;;;;;;6.90;1.00;;;;;;5011733;28;20300;-80
2022/01/29 02:05:53;;;;;;;;;;;6.90;1.00;;;;;;5019107;28;19916;-81
2022/01/29 02:08:18;;;;;;;;;;;6.90;1.00;;;;;;5029225;28;19936;-81
2022/01/29 02:10:48;;;;;;;;;;;6.90;1.00;;;;;;5019267;28;19917;-81
2022/01/29 02:13:13;;;;;;;;;;;6.90;1.00;;;;;;5025216;28;19921;-81
2022/01/29 02:15:39;;;;;;;;;;;6.90;1.00;;;;;;5020103;28;19909;-81
2022/01/29 02:18:05;;;;;;;;;;;6.90;1.00;;;;;;5019694;28;19925;-81
2022/01/29 02:20:32;;;;;;;;;;;6.90;1.00;;;;;;5032281;28;19917;-81
2022/01/29 02:23:00;;;;;;;;;;;7.00;1.00;;;;;;5007066;28;20004;-81
2022/01/29 02:25:31;;;;;;;;;;;6.90;1.00;;;;;;5018482;28;20281;-81
2022/01/29 02:28:00;;;;;;;;;;;7.00;1.00;;;;;;5018822;28;19917;-81
2022/01/29 02:30:29;;;;;;;;;;;7.00;1.90;;;;;;5034452;28;19917;-81
2022/01/29 02:32:55;;;;;;;;;;;7.00;48.50;;;;;;5018359;28;19910;-81
2022/01/29 02:35:20;;;;;;;;;;;7.00;65.50;;;;;;5033358;28;19917;-81
2022/01/29 02:37:50;;;;;;;;;;;6.90;99.90;;;;;;5017459;28;19913;-81
2022/01/29 02:40:17;;;;;;;;;;;7.00;99.90;;;;;;5016500;28;20274;-81
2022/01/29 02:42:42;;;;;;;;;;;6.90;99.90;;;;;;5031687;28;20356;-81
2022/01/29 02:45:08;;;;;;;;;;;7.00;99.90;;;;;;5028845;28;19913;-80
2022/01/29 02:47:33;;;;;;;;;;;6.90;1.00;;;;;;5008033;28;20044;-80
2022/01/29 02:49:58;;;;;;;;;;;6.90;1.00;;;;;;5028734;28;19964;-80
2022/01/29 02:52:24;;;;;;;;;;;6.90;1.00;;;;;;5017809;28;19913;-81
2022/01/29 02:54:49;;;;;;;;;;;6.90;99.90;;;;;;5033210;28;19945;-81
2022/01/29 02:57:15;;;;;;;;;;;6.90;99.90;;;;;;5018581;28;19956;-81
2022/01/29 02:59:40;;;;;;;;;;;6.90;99.90;;;;;;5033745;28;20412;-82
2022/01/29 03:02:06;;;;;;;;;;;6.90;99.90;;;;;;5016221;28;19948;-81
2022/01/29 03:04:32;;;;;;;;;;;6.90;99.90;;;;;;5017960;28;19920;-81
2022/01/29 03:06:57;;;;;;;;;;;6.90;1.00;;;;;;5033244;28;19925;-80
2022/01/29 03:09:23;;;;;;;;;;;6.80;1.00;;;;;;5018148;28;19914;-80
2022/01/29 03:11:48;;;;;;;;;;;6.80;1.00;;;;;;5017398;28;19913;-80
2022/01/29 03:14:14;;;;;;;;;;;6.80;1.00;;;;;;5017611;28;20018;-81
2022/01/29 03:16:39;;;;;;;;;;;6.80;1.00;;;;;;5016871;28;19913;-80
2022/01/29 03:19:05;;;;;;;;;;;6.80;1.00;;;;;;5016700;28;20396;-80
2022/01/29 03:21:30;;;;;;;;;;;6.70;1.00;;;;;;5018007;28;19939;-81
2022/01/29 03:23:55;;;;;;;;;;;6.70;1.00;;;;;;5016345;28;19934;-82
2022/01/29 03:26:21;;;;;;;;;;;6.70;1.00;;;;;;5030028;28;20216;-82
2022/01/29 03:28:46;;;;;;;;;;;6.70;1.00;;;;;;5016990;28;19913;-81
2022/01/29 03:31:12;;;;;;;;;;;6.70;1.00;;;;;;5018451;28;19921;-81
2022/01/29 03:33:38;;;;;;;;;;;6.70;1.00;;;;;;5018604;28;20005;-81
2022/01/29 03:36:03;;;;;;;;;;;6.60;1.00;;;;;;5019619;28;19925;-81
2022/01/29 03:38:29;;;;;;;;;;;6.60;1.00;;;;;;5013150;28;19967;-81
2022/01/29 03:40:59;;;;;;;;;;;6.60;1.00;;;;;;5016612;28;20436;-81
2022/01/29 03:43:34;;;;;;;;;;;6.60;1.00;;;;;;5017264;28;20377;-81
2022/01/29 03:46:00;;;;;;;;;;;6.60;1.00;;;;;;5029992;28;19913;-81
2022/01/29 03:48:25;;;;;;;;;;;6.60;1.00;;;;;;5027443;28;19921;-81
2022/01/29 03:50:51;;;;;;;;;;;6.60;1.00;;;;;;5033560;28;19932;-81
2022/01/29 03:53:17;;;;;;;;;;;6.60;1.00;;;;;;5016413;28;19928;-81
2022/01/29 03:55:42;;;;;;;;;;;6.60;1.00;;;;;;5028964;28;20333;-80
2022/01/29 03:58:07;;;;;;;;;;;6.60;1.00;;;;;;5006479;28;19996;-80
2022/01/29 04:00:33;;;;;;;;;;;6.60;1.00;;;;;;5033417;28;19917;-81
2022/01/29 04:02:59;;;;;;;;;;;6.60;1.00;;;;;;5011354;28;19925;-81
2022/01/29 04:05:26;;;;;;;;;;;6.60;1.00;;;;;;5031505;28;19984;-81
2022/01/29 04:07:51;;;;;;;;;;;6.60;1.00;;;;;;5015106;28;20356;-81
2022/01/29 04:10:19;;;;;;;;;;;6.60;1.00;;;;;;5017372;28;20016;-81
2022/01/29 04:12:48;;;;;;;;;;;6.50;1.00;;;;;;5016390;28;19921;-81
2022/01/29 04:15:13;;;;;;;;;;;6.50;1.00;;;;;;5013525;28;19996;-81
2022/01/29 04:17:39;;;;;;;;;;;6.50;1.00;;;;;;5030562;28;19979;-81
2022/01/29 04:20:05;;;;;;;;;;;6.50;1.00;;;;;;5017286;28;19917;-81
2022/01/29 04:22:30;;;;;;;;;;;6.40;1.00;;;;;;5032574;28;19921;-81
2022/01/29 04:24:56;;;;;;;;;;;6.40;1.00;;;;;;5017367;28;19952;-81
2022/01/29 04:27:31;;;;;;;;;;;6.40;1.00;;;;;;5015899;28;19913;-81
2022/01/29 04:30:00;;;;;;;;;;;6.40;1.00;;;;;;5015574;28;19932;-81
2022/01/29 04:32:57;;;;;;;;;;;6.40;1.00;;;;;;5023208;28;19914;-80
2022/01/29 04:35:18;;;;;;;;;;;6.40;1.00;;;;;;5014050;28;20009;-81
2022/01/29 04:37:43;;;;;;;;;;;6.40;1.00;;;;;;5014480;28;19976;-81
2022/01/29 04:40:09;;;;;;;;;;;6.40;1.00;;;;;;5021633;28;19909;-82
2022/01/29 04:42:35;;;;;;;;;;;6.40;1.00;;;;;;5038135;28;19985;-80
2022/01/29 04:45:00;;;;;;;;;;;6.40;1.00;;;;;;5024138;28;20001;-80
2022/01/29 04:47:25;;;;;;;;;;;6.40;1.00;;;;;;5023751;28;20008;-81
2022/01/29 04:49:51;;;;;;;;;;;6.40;1.00;;;;;;5016592;28;20432;-81
2022/01/29 04:52:16;;;;;;;;;;;6.40;1.00;;;;;;5008353;28;19914;-81
2022/01/29 04:54:42;;;;;;;;;;;6.40;1.00;;;;;;5018147;28;19918;-81
2022/01/29 04:57:07;;;;;;;;;;;6.50;1.00;;;;;;5016440;28;19925;-81
2022/01/29 04:59:33;;;;;;;;;;;6.50;1.00;;;;;;5014649;28;19920;-81
2022/01/29 05:01:58;;;;;;;;;;;6.50;1.00;;;;;;5015906;28;19909;-81
2022/01/29 05:04:24;;;;;;;;;;;6.50;1.00;;;;;;5016997;28;20357;-80
2022/01/29 05:06:49;;;;;;;;;;;6.50;1.00;;;;;;5017694;28;19913;-82
2022/01/29 05:09:15;;;;;;;;;;;6.50;1.00;;;;;;5015287;28;19967;-82
2022/01/29 05:11:42;;;;;;;;;;;6.60;1.00;;;;;;5015146;28;20032;-82
2022/01/29 05:14:16;;;;;;;;;;;6.60;1.00;;;;;;5011688;28;20376;-82
2022/01/29 05:17:07;;;;;;;;;;;6.60;1.00;;;;;;5014271;28;19913;-81
2022/01/29 05:27:39;;;;;;;;;;;6.70;1.00;;;;;;5019692;28;19920;-82
2022/01/29 05:30:05;;;;;;;;;;;6.70;1.00;;;;;;5014241;28;20377;-82
2022/01/29 05:32:30;;;;;;;;;;;6.70;1.00;;;;;;5030473;28;19932;-81
2022/01/29 05:34:56;;;;;;;;;;;6.70;1.00;;;;;;5019103;28;19924;-82
2022/01/29 05:37:21;;;;;;;;;;;6.70;1.00;;;;;;5035112;28;19937;-82
2022/01/29 05:39:47;;;;;;;;;;;6.70;1.00;;;;;;5019150;28;20004;-81
2022/01/29 05:42:12;;;;;;;;;;;6.70;1.00;;;;;;5019450;28;19922;-82
2022/01/29 05:44:37;;;;;;;;;;;6.80;1.00;;;;;;5015917;28;19959;-80
2022/01/29 05:47:03;;;;;;;;;;;6.80;1.00;;;;;;5007066;28;20302;-81
2022/01/29 05:49:28;;;;;;;;;;;6.80;1.00;;;;;;5018549;28;20008;-81
2022/01/29 05:51:54;;;;;;;;;;;6.90;1.00;;;;;;5027339;28;20437;-81
2022/01/29 05:54:19;;;;;;;;;;;6.90;1.00;;;;;;5017162;28;19953;-82
2022/01/29 05:56:45;;;;;;;;;;;6.90;1.00;;;;;;5025435;28;19916;-81
2022/01/29 05:59:10;;;;;;;;;;;6.90;1.00;;;;;;5026261;28;19914;-81
2022/01/29 06:01:36;;;;;;;;;;;6.90;1.00;;;;;;5018392;28;19913;-82
2022/01/29 06:04:01;;;;;;;;;;;7.00;1.00;;;;;;5018828;28;19937;-81
2022/01/29 06:06:27;;;;;;;;;;;7.00;1.00;;;;;;5018601;28;19914;-81
2022/01/29 06:08:52;;;;;;;;;;;7.00;1.00;;;;;;5017066;28;19941;-81
2022/01/29 06:11:18;;;;;;;;;;;7.10;1.00;;;;;;5017613;28;20259;-81
2022/01/29 06:13:43;;;;;;;;;;;7.10;1.00;;;;;;5018076;28;19910;-81
2022/01/29 06:16:09;;;;;;;;;;;7.10;1.00;;;;;;5020289;28;19909;-81
2022/01/29 06:18:34;;;;;;;;;;;7.10;1.00;;;;;;5025045;28;19928;-80
2022/01/29 06:21:04;;;;;;;;;;;7.10;1.00;;;;;;5019254;28;20008;-81
2022/01/29 06:23:34;;;;;;;;;;;7.20;1.00;;;;;;5018553;28;20370;-81
2022/01/29 06:26:02;;;;;;;;;;;7.20;1.00;;;;;;5018700;28;19913;-81
2022/01/29 06:28:27;;;;;;;;;;;7.20;1.00;;;;;;5018886;28;19920;-81
2022/01/29 06:30:53;;;;;;;;;;;7.20;1.00;;;;;;5018526;28;19917;-80
2022/01/29 06:33:18;;;;;;;;;;;7.20;1.00;;;;;;5018214;28;19949;-80
2022/01/29 06:35:44;;;;;;;;;;;7.20;1.00;;;;;;5017339;28;19968;-80
2022/01/29 06:38:11;;;;;;;;;;;7.20;1.00;;;;;;5017007;28;19910;-80
2022/01/29 06:40:37;;;;;;;;;;;7.30;1.00;;;;;;5006842;28;20001;-80
2022/01/29 06:43:04;;;;;;;;;;;7.30;1.00;;;;;;5013454;28;20267;-81
2022/01/29 06:45:30;;;;;;;;;;;7.30;1.00;;;;;;5019458;28;19913;-80
2022/01/29 06:47:55;;;;;;;;;;;7.40;1.00;;;;;;5019019;28;19914;-80
2022/01/29 06:50:21;;;;;;;;;;;7.40;1.00;;;;;;5017562;28;19937;-79
2022/01/29 06:52:47;;;;;;;;;;;7.40;1.00;;;;;;5019382;28;19913;-82
2022/01/29 06:55:12;;;;;;;;;;;7.50;1.00;;;;;;5020245;28;19918;-82
2022/01/29 06:57:38;;;;;;;;;;;7.60;1.00;;;;;;5018738;28;20067;-81
2022/01/29 07:00:07;;;;;;;;;;;7.60;1.00;;;;;;5018778;28;19933;-83
2022/01/29 07:02:33;;;;;;;;;;;7.60;1.00;;;;;;5013700;28;19914;-82
2022/01/29 07:05:02;;;;;;;;;;;7.60;1.00;;;;;;5018717;28;19909;-82
2022/01/29 07:07:28;;;;;;;;;;;7.60;1.00;;;;;;5025449;28;19917;-82
2022/01/29 07:09:53;;;;;;;;;;;7.70;1.00;;;;;;5018759;28;19959;-82
2022/01/29 07:12:19;;;;;;;;;;;7.70;1.00;;;;;;5017758;28;19914;-81
2022/01/29 07:14:44;;;;;;;;;;;7.70;1.00;;;;;;5018583;28;19923;-82
2022/01/29 07:17:11;;;;;;;;;;;7.70;1.00;;;;;;5016351;28;19920;-82
2022/01/29 07:19:36;;;;;;;;;;;7.70;1.00;;;;;;5012238;28;19936;-82
2022/01/29 07:22:02;;;;;;;;;;;7.70;1.00;;;;;;5016754;28;20378;-82
2022/01/29 07:24:27;;;;;;;;;;;7.70;1.00;;;;;;5015498;28;19960;-82
2022/01/29 07:26:53;;;;;;;;;;;7.70;1.00;;;;;;5033287;28;19920;-82
2022/01/29 07:29:18;;;;;;;;;;;7.70;1.00;;;;;;5025354;28;19948;-82
2022/01/29 07:31:44;;;;;;;;;;;7.80;1.00;;;;;;5018732;28;19921;-82
2022/01/29 07:34:09;;;;;;;;;;;7.80;1.00;;;;;;5018646;28;19977;-81
2022/01/29 07:36:35;;;;;;;;;;;7.80;1.00;;;;;;5004507;28;19964;-82
2022/01/29 07:39:00;;;;;;;;;;;7.80;1.00;;;;;;5019804;28;19916;-81
2022/01/29 07:41:25;;;;;;;;;;;7.80;1.00;;;;;;5019217;28;20405;-81
2022/01/29 07:43:51;;;;;;;;;;;7.80;1.00;;;;;;5018949;28;19913;-81
2022/01/29 07:46:18;;;;;;;;;;;7.90;1.00;;;;;;5019791;28;20374;-81
2022/01/29 07:48:44;;;;;;;;;;;7.90;1.00;;;;;;5018663;28;19924;-81
2022/01/29 07:51:09;;;;;;;;;;;7.90;1.00;;;;;;5019705;28;19923;-81
2022/01/29 07:53:34;;;;;;;;;;;7.90;1.00;;;;;;5019856;28;19921;-81
2022/01/29 07:56:00;;;;;;;;;;;7.90;1.00;;;;;;5019168;28;19997;-81
2022/01/29 07:58:25;;;;;;;;;;;8.00;1.00;;;;;;5020917;28;19914;-81
2022/01/29 08:00:51;;;;;;;;;;;8.00;1.00;;;;;;5021945;28;19917;-81
2022/01/29 08:03:16;;;;;;;;;;;8.00;1.00;;;;;;5020729;28;19914;-82
2022/01/29 08:05:42;;;;;;;;;;;8.00;1.00;;;;;;5020506;28;19914;-81
2022/01/29 08:08:07;;;;;;;;;;;8.00;1.00;;;;;;5019956;28;19913;-81
2022/01/29 08:10:33;;;;;;;;;;;8.10;1.00;;;;;;5021400;28;19918;-81
2022/01/29 08:12:58;;;;;;;;;;;8.10;1.00;;;;;;5016514;28;19913;-81
2022/01/29 08:15:26;;;;;;;;;;;8.10;1.00;;;;;;5021210;28;19913;-81
2022/01/29 08:17:52;;;;;;;;;;;8.10;1.00;;;;;;5021075;28;19960;-82
2022/01/29 08:20:17;;;;;;;;;;;8.20;1.00;;;;;;5023630;28;19917;-81
2022/01/29 08:22:43;;;;;;;;;;;8.20;1.00;;;;;;5023586;28;19931;-82
2022/01/29 08:25:09;;;;;;;;;;;8.20;1.00;;;;;;5023649;28;20360;-81
2022/01/29 08:27:34;;;;;;;;;;;8.20;1.00;;;;;;5024825;28;19924;-81
2022/01/29 08:30:00;;;;;;;;;;;8.20;1.00;;;;;;5024868;28;19917;-82
2022/01/29 08:32:25;;;;;;;;;;;8.30;1.00;;;;;;5022574;28;19937;-82
2022/01/29 08:34:51;;;;;;;;;;;8.30;1.00;;;;;;5018947;28;19924;-82
2022/01/29 08:37:16;;;;;;;;;;;8.40;1.00;;;;;;5023132;28;19913;-82
2022/01/29 08:39:42;;;;;;;;;;;8.40;1.00;;;;;;5023129;28;19920;-83
2022/01/29 08:42:08;;;;;;;;;;;8.40;1.00;;;;;;5023351;28;20008;-81
2022/01/29 08:44:34;;;;;;;;;;;8.50;1.00;;;;;;5023756;28;19920;-82
2022/01/29 08:46:59;;;;;;;;;;;8.50;1.00;;;;;;5024318;28;19973;-81
2022/01/29 08:49:25;;;;;;;;;;;8.60;1.00;;;;;;5023836;28;19953;-81
2022/01/29 08:51:51;;;;;;;;;;;8.60;1.00;;;;;;5036667;28;19917;-81
2022/01/29 08:54:17;;;;;;;;;;;8.60;1.00;;;;;;5024058;28;20018;-81
2022/01/29 08:56:42;;;;;;;;;;;8.70;1.00;;;;;;5023150;28;19921;-81
2022/01/29 08:59:08;;;;;;;;;;;8.80;1.00;;;;;;5024468;28;19916;-82
2022/01/29 09:01:33;;;;;;;;;;;8.80;1.00;;;;;;5027356;28;19975;-82
2022/01/29 09:03:59;;;;;;;;;;;8.80;1.00;;;;;;5029033;28;19917;-80
2022/01/29 09:06:24;;;;;;;;;;;8.90;1.00;;;;;;5027329;28;19919;-82
2022/01/29 09:08:51;;;;;;;;;;;9.00;1.00;;;;;;5026057;28;19922;-82
2022/01/29 09:11:17;;;;;;;;;;;9.00;1.00;;;;;;5025014;28;19920;-82
2022/01/29 09:13:43;;;;;;;;;;;9.00;1.00;;;;;;5030015;28;19964;-82
2022/01/29 09:16:09;;;;;;;;;;;9.10;1.00;;;;;;5024606;28;19909;-82
2022/01/29 09:18:34;;;;;;;;;;;9.10;1.00;;;;;;5027049;28;19932;-82
2022/01/29 09:21:00;;;;;;;;;;;9.20;1.00;;;;;;5027632;28;19916;-82
2022/01/29 09:23:25;;;;;;;;;;;9.40;1.00;;;;;;5028424;28;19973;-82
2022/01/29 09:25:51;;;;;;;;;;;9.40;1.00;;;;;;5021987;28;19952;-81
2022/01/29 09:28:17;;;;;;;;;;;9.30;1.00;;;;;;5025982;28;19958;-81
2022/01/29 09:30:43;;;;;;;;;;;9.30;1.00;;;;;;5023424;28;19913;-82
2022/01/29 09:33:09;;;;;;;;;;;9.20;1.00;;;;;;5021167;28;19916;-82
2022/01/29 09:35:34;;;;;;;;;;;9.20;1.00;;;;;;5023985;28;19917;-81
2022/01/29 09:38:00;;;;;;;;;;;9.20;1.00;;;;;;5039364;28;19909;-81
2022/01/29 09:40:25;;;;;;;;;;;9.20;1.00;;;;;;5025141;28;19941;-81
2022/01/29 09:42:52;;;;;;;;;;;9.30;1.00;;;;;;5026165;28;19929;-81
2022/01/29 09:45:20;;;;;;;;;;;9.40;1.00;;;;;;5021403;28;20370;-83
2022/01/29 09:47:46;;;;;;;;;;;9.50;1.00;;;;;;5022127;28;19973;-81
2022/01/29 09:50:13;;;;;;;;;;;9.80;1.00;;;;;;5024533;28;19914;-81
2022/01/29 09:52:38;;;;;;;;;;;9.80;1.00;;;;;;5024382;28;19910;-81
2022/01/29 09:55:05;;;;;;;;;;;9.80;1.00;;;;;;5022617;28;19955;-81
2022/01/29 09:57:31;;;;;;;;;;;9.70;1.00;;;;;;5021386;28;19920;-81
2022/01/29 09:59:56;;;;;;;;;;;9.80;1.00;;;;;;5036172;28;19941;-81
2022/01/29 10:02:22;;;;;;;;;;;9.90;99.90;;;;;;5033436;28;19949;-81
2022/01/29 10:04:51;;;;;;;;;;;9.90;99.90;;;;;;5039879;28;19912;-82
2022/01/29 10:07:18;;;;;;;;;;;9.90;99.90;;;;;;5031526;28;19917;-81
2022/01/29 10:09:44;;;;;;;;;;;9.90;99.90;;;;;;5020445;28;19913;-82
2022/01/29 10:12:35;;;;;;;;;;;9.90;99.90;;;;;;5020947;28;19909;-81
2022/01/29 10:15:00;;;;;;;;;;;9.90;99.90;;;;;;5019154;28;19910;-81
2022/01/29 10:17:41;;;;;;;;;;;10.00;99.90;;;;;;5033092;28;19917;-81
2022/01/29 10:20:11;;;;;;;;;;;9.90;99.90;;;;;;5021714;28;19912;-81
2022/01/29 10:22:37;;;;;;;;;;;10.00;99.90;;;;;;5020556;28;19916;-81
2022/01/29 10:25:09;;;;;;;;;;;9.90;99.90;;;;;;5023639;28;19910;-82
2022/01/29 10:27:35;;;;;;;;;;;10.00;99.90;;;;;;5023595;28;20005;-81
2022/01/29 10:30:01;;;;;;;;;;;10.00;99.90;;;;;;5023877;28;19969;-81
2022/01/29 10:32:28;;;;;;;;;;;10.10;99.90;;;;;;5013423;28;19957;-81
2022/01/29 10:34:55;;;;;;;;;;;10.00;99.90;;;;;;5016287;28;19913;-81
2022/01/29 10:37:24;;;;;;;;;;;10.10;99.90;;;;;;5016891;28;19916;-81
2022/01/29 10:39:56;;;;;;;;;;;10.10;99.90;;;;;;5035803;28;19956;-81
2022/01/29 10:42:23;;;;;;;;;;;10.00;99.90;;;;;;5009985;28;19910;-80
2022/01/29 10:44:50;;;;;;;;;;;9.90;99.90;;;;;;5009220;28;19910;-81
2022/01/29 10:47:16;;;;;;;;;;;9.80;1.00;;;;;;5017751;28;19916;-81
2022/01/29 10:49:51;;;;;;;;;;;9.70;1.00;;;;;;5018258;28;19913;-81
2022/01/29 10:52:16;;;;;;;;;;;9.60;1.00;;;;;;5016264;28;19910;-81
2022/01/29 10:54:42;;;;;;;;;;;9.60;1.00;;;;;;5016871;28;19925;-81
2022/01/29 10:57:13;;;;;;;;;;;9.60;1.00;;;;;;5009435;28;19910;-81
2022/01/29 10:59:46;;;;;;;;;;;9.60;1.00;;;;;;5015281;28;19910;-82
2022/01/29 11:02:12;;;;;;;;;;;9.60;1.00;;;;;;5011730;28;19976;-81
2022/01/29 11:04:38;;;;;;;;;;;9.60;1.00;;;;;;5016849;28;19941;-82
2022/01/29 11:07:10;;;;;;;;;;;9.70;1.00;;;;;;5009398;28;19914;-81
2022/01/29 11:09:38;;;;;;;;;;;9.70;1.00;;;;;;5019746;28;19909;-82
2022/01/29 11:12:04;;;;;;;;;;;9.70;1.00;;;;;;5020152;28;19913;-81
2022/01/29 11:14:30;;;;;;;;;;;9.80;1.00;;;;;;5030671;28;19967;-82
2022/01/29 11:16:56;;;;;;;;;;;9.80;1.00;;;;;;5012172;28;19917;-80
2022/01/29 11:19:21;;;;;;;;;;;9.80;1.00;;;;;;5026671;28;19917;-81
2022/01/29 11:21:51;;;;;;;;;;;9.90;1.00;;;;;;5043460;28;19914;-82
2022/01/29 11:24:21;;;;;;;;;;;9.90;1.00;;;;;;5031510;28;19910;-81
2022/01/29 11:26:47;;;;;;;;;;;9.90;1.00;;;;;;5023648;28;20281;-83
2022/01/29 11:29:31;;;;;;;;;;;10.00;1.00;;;;;;5024192;28;19929;-82
2022/01/29 11:32:15;;;;;;;;;;;10.30;1.00;;;;;;5028693;28;20356;-82
2022/01/29 11:35:00;;;;;;;;;;;10.50;1.00;;;;;;5031780;28;19949;-81
2022/01/29 11:38:00;;;;;;;;;;;10.60;1.00;;;;;;5018084;28;20321;-82
2022/01/29 11:40:32;;;;;;;;;;;11.00;1.00;;;;;;5037724;28;19913;-82
2022/01/29 11:43:06;;;;;;;;;;;11.30;99.90;;;;;;5018619;28;19914;-82
2022/01/29 11:45:33;;;;;;;;;;;11.60;72.70;;;;;;5039328;28;19916;-82
2022/01/29 11:47:58;;;;;;;;;;;11.90;99.90;;;;;;5020078;28;19936;-82
2022/01/29 11:50:27;;;;;;;;;;;11.90;1.00;;;;;;5015534;28;19921;-82
2022/01/29 11:52:56;;;;;;;;;;;11.90;99.90;;;;;;5018352;28;19918;-82
2022/01/29 11:55:34;;;;;;;;;;;12.00;1.00;;;;;;5022294;28;19914;-82
2022/01/29 11:58:15;;;;;;;;;;;12.00;99.90;;;;;;5038157;28;19918;-82
2022/01/29 12:00:41;;;;;;;;;;;12.20;99.90;;;;;;5036354;28;19936;-81
2022/01/29 12:03:27;;;;;;;;;;;12.20;99.90;;;;;;5022598;28;19917;-81
2022/01/29 12:06:21;;;;;;;;;;;12.20;1.00;;;;;;5017971;28;19913;-82
2022/01/29 12:09:01;;;;;;;;;;;12.10;99.90;;;;;;5032175;28;19924;-81
2022/01/29 12:11:27;;;;;;;;;;;12.10;1.00;;;;;;5019651;28;19921;-81
2022/01/29 12:14:11;;;;;;;;;;;12.00;1.00;;;;;;5017485;28;19914;-82
2022/01/29 12:16:54;;;;;;;;;;;11.90;1.00;;;;;;5015041;28;19936;-82
2022/01/29 12:19:32;;;;;;;;;;;11.80;1.00;;;;;;5016343;28;19985;-82
2022/01/29 12:21:58;;;;;;;;;;;11.80;1.00;;;;;;5017608;28;19913;-82
2022/01/29 12:24:24;;;;;;;;;;;11.90;1.00;;;;;;5026417;28;19972;-82
2022/01/29 12:26:53;;;;;;;;;;;11.90;99.90;;;;;;5008725;28;19914;-82
2022/01/29 12:29:21;;;;;;;;;;;12.00;99.90;;;;;;5014811;28;19921;-81
2022/01/29 12:31:53;;;;;;;;;;;12.00;99.90;;;;;;5026307;28;19918;-81
2022/01/29 12:34:20;;;;;;;;;;;12.10;99.90;;;;;;5003266;28;19918;-81
2022/01/29 12:36:46;;;;;;;;;;;12.30;99.90;;;;;;5018355;28;19914;-81
2022/01/29 12:39:20;;;;;;;;;;;12.30;99.90;;;;;;5011095;28;19917;-81
2022/01/29 12:42:00;;;;;;;;;;;12.60;20.10;;;;;;5015040;28;19914;-81
2022/01/29 12:44:26;;;;;;;;;;;12.90;1.00;;;;;;5008503;28;19952;-83
2022/01/29 12:46:51;;;;;;;;;;;12.80;99.90;;;;;;5024620;28;19909;-81
2022/01/29 12:49:16;;;;;;;;;;;12.60;99.90;;;;;;5014023;28;19913;-80
2022/01/29 12:51:56;;;;;;;;;;;12.40;99.90;;;;;;5027126;28;19918;-81
2022/01/29 12:54:22;;;;;;;;;;;12.10;99.90;;;;;;5006064;28;19981;-81
2022/01/29 12:56:48;;;;;;;;;;;11.90;99.90;;;;;;5010814;28;20270;-81
2022/01/29 12:59:14;;;;;;;;;;;11.80;99.90;;;;;;5015908;28;19923;-81
2022/01/29 13:01:41;;;;;;;;;;;11.70;99.90;;;;;;5009210;28;19913;-81
2022/01/29 13:04:13;;;;;;;;;;;11.60;99.90;;;;;;5011203;28;19917;-81
2022/01/29 13:06:39;;;;;;;;;;;11.50;1.00;;;;;;5009603;28;19913;-81
2022/01/29 13:09:11;;;;;;;;;;;11.50;1.00;;;;;;5016261;28;19920;-83
2022/01/29 13:11:36;;;;;;;;;;;11.40;1.00;;;;;;5032219;28;20325;-81
2022/01/29 13:14:09;;;;;;;;;;;11.40;1.00;;;;;;5012099;28;20019;-80
2022/01/29 13:16:35;;;;;;;;;;;11.40;1.00;;;;;;5012948;28;19913;-80
2022/01/29 13:19:01;;;;;;;;;;;11.40;1.00;;;;;;5030375;28;19920;-81
2022/01/29 13:21:27;;;;;;;;;;;11.30;1.00;;;;;;5026713;28;19967;-80
2022/01/29 13:23:56;;;;;;;;;;;11.30;1.00;;;;;;5012105;28;19913;-80
2022/01/29 13:26:28;;;;;;;;;;;11.30;1.00;;;;;;5032798;28;19917;-81
2022/01/29 13:29:05;;;;;;;;;;;11.40;1.00;;;;;;5016886;28;19917;-81
2022/01/29 13:31:42;;;;;;;;;;;11.70;1.00;;;;;;5006383;28;19917;-81
2022/01/29 13:34:23;;;;;;;;;;;11.70;1.00;;;;;;5012620;28;19993;-80
2022/01/29 13:36:48;;;;;;;;;;;11.60;1.00;;;;;;5016905;28;19919;-81
2022/01/29 13:39:14;;;;;;;;;;;11.40;1.00;;;;;;5015998;28;19985;-80
2022/01/29 13:41:39;;;;;;;;;;;11.40;1.00;;;;;;5018464;28;19920;-80
2022/01/29 13:44:09;;;;;;;;;;;11.40;1.00;;;;;;5022296;28;19922;-80
2022/01/29 13:46:34;;;;;;;;;;;11.50;1.00;;;;;;5022192;28;19924;-81
2022/01/29 13:49:02;;;;;;;;;;;11.40;1.00;;;;;;5022992;28;19917;-81
2022/01/29 13:51:35;;;;;;;;;;;11.40;1.00;;;;;;5016918;28;19945;-81
2022/01/29 13:54:02;;;;;;;;;;;11.40;1.00;;;;;;5021407;28;19917;-81
2022/01/29 13:56:29;;;;;;;;;;;11.30;1.00;;;;;;5018841;28;19913;-81
2022/01/29 13:58:59;;;;;;;;;;;11.30;1.00;;;;;;5012368;28;19977;-81
2022/01/29 14:01:43;;;;;;;;;;;11.20;1.00;;;;;;5033718;28;21404;-81
2022/01/29 14:04:21;;;;;;;;;;;11.20;1.00;;;;;;5033692;28;19989;-81
2022/01/29 14:07:11;;;;;;;;;;;11.20;80.60;;;;;;5031977;28;19960;-81
2022/01/29 14:09:42;;;;;;;;;;;11.20;99.90;;;;;;5038552;28;19913;-81
2022/01/29 14:12:20;;;;;;;;;;;11.20;99.90;;;;;;5039594;28;19917;-81
2022/01/29 14:14:53;;;;;;;;;;;11.20;99.90;;;;;;5031915;28;19919;-81
2022/01/29 14:17:18;;;;;;;;;;;11.10;99.90;;;;;;5022314;28;19924;-81
2022/01/29 14:19:45;;;;;;;;;;;11.10;99.90;;;;;;5038054;28;19913;-81
2022/01/29 14:22:11;;;;;;;;;;;11.10;1.00;;;;;;5015299;28;19921;-81
2022/01/29 14:24:37;;;;;;;;;;;11.00;1.00;;;;;;5040395;28;19914;-82
2022/01/29 14:27:03;;;;;;;;;;;11.00;1.00;;;;;;5017945;28;19914;-81
2022/01/29 14:29:29;;;;;;;;;;;11.00;99.90;;;;;;5035758;28;20293;-81
2022/01/29 14:31:54;;;;;;;;;;;11.00;99.90;;;;;;5023119;28;19963;-80
2022/01/29 14:34:20;;;;;;;;;;;11.00;99.90;;;;;;5026686;28;19917;-81
2022/01/29 14:36:46;;;;;;;;;;;11.00;99.90;;;;;;5029836;28;19910;-82
2022/01/29 14:39:11;;;;;;;;;;;11.00;1.00;;;;;;5032753;28;19913;-82
2022/01/29 14:41:37;;;;;;;;;;;11.00;1.00;;;;;;5023548;28;19921;-81
2022/01/29 14:44:04;;;;;;;;;;;11.00;1.00;;;;;;5018057;28;19918;-81
2022/01/29 14:46:30;;;;;;;;;;;11.00;1.00;;;;;;5028209;28;20000;-81